Time;durP1;ratioP1;P1;durP2;ratioP2;P2;SDS_P1;SDS_P2;PMS_P1;PMS_P2;Temp;Humidity;BMP_temperature;BMP_pressure;BME280_temperature;BME280_humidity;BME280_pressure;Samples;Min_cycle;Max_cycle;Signal;HPM_P1;HPM_P2
2022/11/23 00:01:35;;;;;;;15.48;9.75;;;8.20;99.90;;;;;;5016006;28;20089;-61
2022/11/23 00:04:03;;;;;;;19.52;10.80;;;8.20;99.90;;;;;;5033717;28;20465;-61
2022/11/23 00:06:29;;;;;;;17.70;9.35;;;8.30;99.90;;;;;;5033929;28;20084;-61
2022/11/23 00:08:55;;;;;;;15.60;10.23;;;8.30;99.90;;;;;;5033877;28;20041;-60
2022/11/23 00:11:24;;;;;;;15.82;10.95;;;8.20;99.90;;;;;;5016107;28;20064;-61
2022/11/23 00:13:50;;;;;;;18.20;10.57;;;8.20;99.90;;;;;;5033753;28;20120;-60
2022/11/23 00:16:21;;;;;;;19.50;11.07;;;8.30;99.90;;;;;;5033505;28;20089;-60
2022/11/23 00:18:47;;;;;;;13.68;10.27;;;8.30;99.90;;;;;;5015797;28;20052;-61
2022/11/23 00:21:15;;;;;;;16.10;9.82;;;8.10;99.90;;;;;;5015817;28;20033;-61
2022/11/23 00:23:41;;;;;;;15.60;10.68;;;8.30;99.90;;;;;;5032850;28;20507;-60
2022/11/23 00:26:07;;;;;;;17.60;10.65;;;8.20;99.90;;;;;;5033482;28;20041;-61
2022/11/23 00:28:38;;;;;;;19.80;9.63;;;8.20;99.90;;;;;;5033520;28;20484;-61
2022/11/23 00:31:11;;;;;;;18.00;10.65;;;8.20;99.90;;;;;;5033438;28;20056;-61
2022/11/23 00:33:37;;;;;;;16.15;10.30;;;8.20;99.90;;;;;;5015503;28;20534;-61
2022/11/23 00:36:10;;;;;;;17.95;10.77;;;8.30;99.90;;;;;;5015640;28;20084;-60
2022/11/23 00:38:36;;;;;;;20.38;10.57;;;8.30;99.90;;;;;;5033389;28;20107;-61
2022/11/23 00:41:07;;;;;;;15.55;9.85;;;8.40;99.90;;;;;;5015575;28;20037;-61
2022/11/23 00:43:33;;;;;;;15.05;9.63;;;;;;;;;;5015456;28;20080;-61
2022/11/23 00:46:15;;;;;;;15.13;9.77;;;8.50;99.90;;;;;;5015505;28;20377;-61
2022/11/23 00:48:42;;;;;;;20.85;9.50;;;8.40;99.90;;;;;;5033285;28;20033;-61
2022/11/23 00:51:10;;;;;;;17.70;9.55;;;8.40;99.90;;;;;;5015379;28;20045;-61
2022/11/23 00:53:36;;;;;;;16.85;9.85;;;8.30;99.90;;;;;;5033157;28;20038;-61
2022/11/23 00:56:02;;;;;;;13.60;9.90;;;8.40;99.90;;;;;;5015262;28;20108;-61
2022/11/23 00:58:28;;;;;;;14.60;10.13;;;8.30;99.90;;;;;;5032781;28;20091;-60
2022/11/23 01:01:21;;;;;;;16.35;9.75;;;8.30;99.90;;;;;;5032764;28;20045;-61
2022/11/23 01:03:49;;;;;;;12.70;8.75;;;8.50;99.90;;;;;;5030179;28;20049;-61
2022/11/23 01:06:23;;;;;;;14.00;9.77;;;8.40;99.90;;;;;;5032944;28;20080;-60
2022/11/23 01:08:54;;;;;;;15.83;9.10;;;8.50;99.90;;;;;;5003608;28;20099;-61
2022/11/23 01:11:21;;;;;;;14.40;10.18;;;8.40;99.90;;;;;;5033054;28;20280;-61
2022/11/23 01:13:47;;;;;;;19.52;10.50;;;8.30;99.90;;;;;;5032739;28;20116;-61
2022/11/23 01:16:19;;;;;;;17.90;9.55;;;8.40;99.90;;;;;;5032663;28;20096;-60
2022/11/23 01:18:45;;;;;;;16.17;8.52;;;8.40;99.90;;;;;;5015062;28;20124;-61
2022/11/23 01:21:11;;;;;;;16.38;9.43;;;8.40;99.90;;;;;;5033015;28;20128;-61
2022/11/23 01:23:36;;;;;;;15.95;10.20;;;8.40;99.90;;;;;;5031366;28;20038;-61
2022/11/23 01:26:10;;;;;;;14.20;9.57;;;8.60;99.90;;;;;;5032891;28;20088;-61
2022/11/23 01:28:37;;;;;;;21.73;10.48;;;8.60;99.90;;;;;;5032914;28;20034;-61
2022/11/23 01:31:08;;;;;;;19.40;10.77;;;8.40;99.90;;;;;;5032778;28;20120;-60
2022/11/23 01:33:34;;;;;;;17.42;10.73;;;;;;;;;;5032548;28;20042;-60
2022/11/23 01:36:00;;;;;;;13.73;10.63;;;8.50;99.90;;;;;;5035467;28;20095;-61
2022/11/23 01:38:26;;;;;;;17.52;10.80;;;8.50;99.90;;;;;;5036831;28;20041;-61
2022/11/23 01:40:52;;;;;;;14.80;10.65;;;8.50;99.90;;;;;;5018612;28;20048;-61
2022/11/23 01:43:17;;;;;;;25.08;11.38;;;8.50;99.90;;;;;;5036757;28;20029;-61
2022/11/23 01:45:55;;;;;;;18.73;10.98;;;8.40;99.90;;;;;;5018994;28;20041;-61
2022/11/23 01:48:31;;;;;;;20.55;10.90;;;8.50;99.90;;;;;;5036431;28;20038;-60
2022/11/23 01:50:59;;;;;;;17.80;10.20;;;8.50;99.90;;;;;;5036619;28;20056;-61
2022/11/23 01:53:26;;;;;;;17.95;11.20;;;8.30;99.90;;;;;;5018842;28;20048;-61
2022/11/23 01:55:55;;;;;;;23.27;11.82;;;8.60;99.90;;;;;;5036488;28;20076;-60
2022/11/23 01:58:22;;;;;;;19.73;11.65;;;;;;;;;;5018502;28;20045;-60
2022/11/23 02:00:49;;;;;;;24.52;12.27;;;8.40;99.90;;;;;;5036252;28;20051;-60
2022/11/23 02:03:14;;;;;;;19.15;12.50;;;8.60;99.90;;;;;;5035896;28;20566;-61
2022/11/23 02:05:47;;;;;;;24.15;13.35;;;8.50;99.90;;;;;;5036255;28;20121;-61
2022/11/23 02:08:15;;;;;;;25.77;12.75;;;8.50;99.90;;;;;;5015992;28;20084;-61
2022/11/23 02:10:41;;;;;;;24.95;12.93;;;8.50;99.90;;;;;;5036131;28;20522;-61
2022/11/23 02:13:10;;;;;;;23.55;12.27;;;;;;;;;;5035999;28;20045;-61
2022/11/23 02:15:36;;;;;;;25.40;13.27;;;8.50;99.90;;;;;;5004213;28;20061;-61
2022/11/23 02:18:06;;;;;;;28.95;13.70;;;8.50;99.90;;;;;;5035845;28;20514;-61
2022/11/23 02:20:31;;;;;;;25.65;13.43;;;8.50;99.90;;;;;;5035915;28;20073;-61
2022/11/23 02:23:03;;;;;;;24.55;12.65;;;8.60;99.90;;;;;;5035938;28;20530;-60
2022/11/23 02:25:44;;;;;;;26.75;14.50;;;8.40;99.90;;;;;;5001772;28;20092;-61
2022/11/23 02:28:17;;;;;;;27.73;14.30;;;8.50;99.90;;;;;;5035618;28;20038;-61
2022/11/23 02:30:46;;;;;;;22.05;13.23;;;8.50;99.90;;;;;;5035853;28;20044;-60
2022/11/23 02:33:11;;;;;;;29.38;15.38;;;8.50;99.90;;;;;;5035853;28;20099;-60
2022/11/23 02:35:49;;;;;;;31.98;15.02;;;8.60;99.90;;;;;;5018006;28;20037;-61
2022/11/23 02:38:15;;;;;;;28.38;14.95;;;8.60;99.90;;;;;;5017781;28;20095;-61
2022/11/23 02:40:41;;;;;;;30.67;14.93;;;8.80;99.90;;;;;;5035285;28;20037;-60
2022/11/23 02:43:06;;;;;;;30.50;14.98;;;8.60;99.90;;;;;;5035280;28;20044;-60
2022/11/23 02:45:50;;;;;;;29.65;14.68;;;8.60;99.90;;;;;;5035372;28;20049;-61
2022/11/23 02:48:16;;;;;;;29.75;15.82;;;8.60;99.90;;;;;;5016989;28;20041;-60
2022/11/23 02:50:42;;;;;;;29.45;15.70;;;8.60;99.90;;;;;;5017753;28;20052;-61
2022/11/23 02:53:08;;;;;;;29.40;15.60;;;8.60;99.90;;;;;;5035136;28;20037;-61
2022/11/23 02:55:34;;;;;;;34.33;15.23;;;8.60;99.90;;;;;;5035018;28;20156;-60
2022/11/23 02:58:00;;;;;;;26.75;15.15;;;8.60;99.90;;;;;;5035056;28;20037;-60
2022/11/23 03:00:25;;;;;;;32.58;15.48;;;8.60;99.90;;;;;;5017298;28;20045;-61
2022/11/23 03:02:51;;;;;;;33.42;16.95;;;8.60;99.90;;;;;;5017464;28;20060;-60
2022/11/23 03:05:18;;;;;;;28.88;15.30;;;;;;;;;;5034987;28;20037;-60
2022/11/23 03:07:43;;;;;;;29.48;15.68;;;8.50;99.90;;;;;;5035088;28;20034;-60
2022/11/23 03:10:09;;;;;;;29.10;15.43;;;8.60;99.90;;;;;;5017190;28;20046;-61
2022/11/23 03:12:34;;;;;;;35.97;17.17;;;8.60;99.90;;;;;;5033081;28;20099;-60
2022/11/23 03:15:00;;;;;;;33.30;16.88;;;8.60;99.90;;;;;;5016508;28;20057;-61
2022/11/23 03:17:26;;;;;;;28.88;16.85;;;8.60;99.90;;;;;;5034720;28;20029;-60
2022/11/23 03:19:53;;;;;;;35.22;18.70;;;;;;;;;;5034625;28;20041;-61
2022/11/23 03:22:18;;;;;;;38.20;17.50;;;8.60;99.90;;;;;;5034755;28;20498;-59
2022/11/23 03:24:44;;;;;;;34.80;17.08;;;8.60;99.90;;;;;;5016818;28;20069;-61
2022/11/23 03:27:10;;;;;;;33.03;18.65;;;8.40;99.90;;;;;;5016832;28;20037;-61
2022/11/23 03:29:35;;;;;;;30.38;16.65;;;8.70;99.90;;;;;;5034643;28;20041;-60
2022/11/23 03:32:01;;;;;;;31.30;17.60;;;8.40;99.90;;;;;;5034748;28;20037;-60
2022/11/23 03:34:27;;;;;;;31.00;17.55;;;8.50;99.90;;;;;;5034507;28;20045;-61
2022/11/23 03:36:52;;;;;;;33.50;19.02;;;8.50;99.90;;;;;;5034440;28;20510;-61
2022/11/23 03:39:18;;;;;;;37.00;18.80;;;8.50;99.90;;;;;;5034341;28;20507;-60
2022/11/23 03:41:44;;;;;;;35.40;18.67;;;8.80;99.90;;;;;;5034349;28;20506;-60
2022/11/23 03:44:09;;;;;;;36.70;19.42;;;8.60;99.90;;;;;;5016743;28;20025;-60
2022/11/23 03:46:35;;;;;;;41.05;21.10;;;8.60;99.90;;;;;;5034342;28;20120;-61
2022/11/23 03:49:00;;;;;;;31.13;18.77;;;8.50;99.90;;;;;;5034009;28;20380;-60
2022/11/23 03:51:26;;;;;;;32.90;20.05;;;8.50;99.90;;;;;;5016555;28;20419;-60
2022/11/23 03:53:52;;;;;;;36.65;19.05;;;8.50;99.90;;;;;;5034084;28;20045;-60
2022/11/23 03:56:17;;;;;;;37.28;20.23;;;8.50;99.90;;;;;;5016382;28;20072;-60
2022/11/23 03:58:43;;;;;;;35.70;19.83;;;8.70;99.90;;;;;;5033176;28;20454;-60
2022/11/23 04:01:08;;;;;;;42.60;19.48;;;8.30;99.90;;;;;;5016195;28;20045;-60
2022/11/23 04:03:34;;;;;;;38.40;19.85;;;8.40;99.90;;;;;;5033841;28;20049;-61
2022/11/23 04:05:59;;;;;;;39.45;20.83;;;8.50;99.90;;;;;;5033869;28;20064;-61
2022/11/23 04:08:25;;;;;;;41.15;22.02;;;8.50;99.90;;;;;;5016227;28;20077;-61
2022/11/23 04:10:50;;;;;;;38.50;21.23;;;8.50;99.90;;;;;;5033586;28;20087;-61
2022/11/23 04:13:16;;;;;;;42.55;21.65;;;8.50;99.90;;;;;;5016136;28;20037;-60
2022/11/23 04:15:42;;;;;;;36.97;21.17;;;8.20;99.90;;;;;;5033442;28;20133;-61
2022/11/23 04:18:07;;;;;;;38.00;22.80;;;8.40;99.90;;;;;;5033631;28;20099;-61
2022/11/23 04:20:33;;;;;;;40.72;21.30;;;8.30;99.90;;;;;;5033474;28;20041;-60
2022/11/23 04:22:58;;;;;;;42.05;22.02;;;8.30;99.90;;;;;;5015993;28;20403;-60
2022/11/23 04:25:24;;;;;;;38.53;20.55;;;8.30;99.90;;;;;;5033383;28;20029;-61
2022/11/23 04:27:49;;;;;;;48.80;21.92;;;8.40;99.90;;;;;;5016064;28;20030;-60
2022/11/23 04:30:15;;;;;;;41.83;21.85;;;8.50;99.90;;;;;;5033618;28;20479;-60
2022/11/23 04:32:43;;;;;;;41.53;22.23;;;8.50;99.90;;;;;;5033622;28;20479;-61
2022/11/23 04:35:09;;;;;;;39.80;20.60;;;8.30;99.90;;;;;;5033155;28;20411;-60
2022/11/23 04:37:34;;;;;;;43.08;21.88;;;8.30;99.90;;;;;;5015754;28;20030;-60
2022/11/23 04:40:00;;;;;;;36.20;20.75;;;8.30;99.90;;;;;;5015363;28;20057;-61
2022/11/23 04:42:25;;;;;;;41.13;21.95;;;8.30;99.90;;;;;;4999227;28;20032;-60
2022/11/23 04:44:51;;;;;;;42.03;22.08;;;8.20;99.90;;;;;;5033185;28;20041;-60
2022/11/23 04:47:17;;;;;;;40.42;21.10;;;8.30;99.90;;;;;;5033194;28;20033;-61
2022/11/23 04:49:42;;;;;;;38.42;21.92;;;8.30;99.90;;;;;;5015761;28;20033;-61
2022/11/23 04:52:08;;;;;;;37.38;20.48;;;8.30;99.90;;;;;;5015296;28;20045;-60
2022/11/23 04:54:33;;;;;;;42.45;22.73;;;8.40;99.90;;;;;;5015679;28;20046;-61
2022/11/23 04:56:59;;;;;;;41.55;22.55;;;8.30;99.90;;;;;;5032988;28;20030;-60
2022/11/23 04:59:26;;;;;;;42.10;20.85;;;8.40;99.90;;;;;;5015185;28;20045;-61
2022/11/23 05:01:51;;;;;;;41.35;21.08;;;8.50;99.90;;;;;;5033481;28;20387;-60
2022/11/23 05:04:18;;;;;;;43.83;21.85;;;8.40;99.90;;;;;;5015146;28;20037;-61
2022/11/23 05:06:44;;;;;;;43.03;22.50;;;8.40;99.90;;;;;;5033123;28;20151;-61
2022/11/23 05:09:10;;;;;;;44.58;22.33;;;8.50;99.90;;;;;;5007189;28;20056;-61
2022/11/23 05:11:36;;;;;;;37.17;22.13;;;8.40;99.90;;;;;;5032904;28;20112;-61
2022/11/23 05:14:01;;;;;;;42.25;21.67;;;8.50;99.90;;;;;;5015206;28;20124;-61
2022/11/23 05:16:27;;;;;;;38.28;21.23;;;8.50;99.90;;;;;;5032656;28;20504;-60
2022/11/23 05:18:53;;;;;;;41.10;22.13;;;;;;;;;;5015459;28;20128;-60
2022/11/23 05:21:19;;;;;;;36.85;20.90;;;8.60;99.90;;;;;;5011002;28;20050;-60
2022/11/23 05:23:44;;;;;;;40.22;23.20;;;8.50;99.90;;;;;;5032868;28;20040;-61
2022/11/23 05:26:10;;;;;;;40.85;21.75;;;8.50;99.90;;;;;;5014986;28;20073;-61
2022/11/23 05:28:36;;;;;;;38.38;21.33;;;8.50;99.90;;;;;;5032809;28;20069;-61
2022/11/23 05:31:02;;;;;;;37.75;22.65;;;8.30;99.90;;;;;;5032813;28;20037;-61
2022/11/23 05:33:28;;;;;;;35.72;20.15;;;8.60;99.90;;;;;;5015230;28;20044;-61
2022/11/23 05:35:53;;;;;;;40.58;21.48;;;8.60;99.90;;;;;;5032541;28;20041;-61
2022/11/23 05:38:19;;;;;;;33.65;19.92;;;8.50;99.90;;;;;;5014955;28;20041;-61
2022/11/23 05:40:45;;;;;;;33.72;20.85;;;8.60;99.90;;;;;;5014885;28;20041;-60
2022/11/23 05:43:11;;;;;;;35.63;20.52;;;8.60;99.90;;;;;;5032799;28;20087;-60
2022/11/23 05:45:36;;;;;;;33.25;19.63;;;8.40;99.90;;;;;;5018902;28;20388;-60
2022/11/23 05:48:02;;;;;;;36.45;19.38;;;8.60;99.90;;;;;;5032678;28;20060;-61
2022/11/23 05:50:28;;;;;;;33.95;19.75;;;8.50;99.90;;;;;;4998729;28;20116;-61
2022/11/23 05:52:58;;;;;;;34.15;18.23;;;8.40;99.90;;;;;;5014909;28;20038;-61
2022/11/23 05:55:24;;;;;;;32.83;17.48;;;8.60;99.90;;;;;;5032341;28;20065;-60
2022/11/23 05:57:49;;;;;;;33.95;17.30;;;8.60;99.90;;;;;;5032481;28;20495;-60
2022/11/23 06:00:16;;;;;;;34.33;19.20;;;8.50;99.90;;;;;;5032408;28;20042;-61
2022/11/23 06:02:41;;;;;;;27.95;16.88;;;8.40;99.90;;;;;;5032456;28;20030;-61
2022/11/23 06:05:08;;;;;;;31.35;16.88;;;8.50;99.90;;;;;;5032304;28;20045;-60
2022/11/23 06:07:34;;;;;;;30.13;16.88;;;8.40;99.90;;;;;;5014831;28;20065;-61
2022/11/23 06:10:01;;;;;;;29.13;17.40;;;8.70;99.90;;;;;;5024152;28;20047;-60
2022/11/23 06:12:27;;;;;;;25.58;14.85;;;8.40;99.90;;;;;;5032401;28;20038;-61
2022/11/23 06:14:53;;;;;;;27.48;16.15;;;;;;;;;;5014622;28;20129;-61
2022/11/23 06:17:19;;;;;;;26.05;16.23;;;8.40;99.90;;;;;;5014523;28;20527;-61
2022/11/23 06:19:44;;;;;;;28.38;15.40;;;8.40;99.90;;;;;;5032140;28;20056;-61
2022/11/23 06:22:10;;;;;;;23.52;15.57;;;8.30;99.90;;;;;;5015989;28;20044;-60
2022/11/23 06:24:35;;;;;;;27.60;15.13;;;8.30;99.90;;;;;;5035637;28;20080;-61
2022/11/23 06:27:01;;;;;;;23.67;13.75;;;8.40;99.90;;;;;;5035929;28;20120;-61
2022/11/23 06:29:27;;;;;;;32.17;15.13;;;8.30;99.90;;;;;;5035910;28;20539;-60
2022/11/23 06:31:53;;;;;;;23.95;14.40;;;8.10;99.90;;;;;;5035752;28;20373;-60
2022/11/23 06:34:19;;;;;;;31.65;13.98;;;8.40;99.90;;;;;;5035687;28;20041;-61
2022/11/23 06:36:44;;;;;;;28.20;13.73;;;8.30;99.90;;;;;;5017751;28;20422;-61
2022/11/23 06:39:10;;;;;;;23.35;12.38;;;8.30;99.90;;;;;;5017891;28;20045;-61
2022/11/23 06:41:35;;;;;;;18.65;12.70;;;8.30;99.90;;;;;;5035306;28;20046;-61
2022/11/23 06:44:01;;;;;;;24.05;11.40;;;8.20;99.90;;;;;;5035468;28;20041;-61
2022/11/23 06:46:27;;;;;;;21.27;11.23;;;8.10;99.90;;;;;;5017666;28;20037;-60
2022/11/23 06:48:52;;;;;;;17.08;10.10;;;8.50;99.90;;;;;;5035267;28;20477;-61
2022/11/23 06:51:18;;;;;;;22.45;10.48;;;8.30;99.90;;;;;;5035413;28;20403;-60
2022/11/23 06:53:43;;;;;;;21.77;9.27;;;8.30;99.90;;;;;;5034941;28;20048;-61
2022/11/23 06:56:09;;;;;;;17.80;9.63;;;8.30;99.90;;;;;;5035047;28;20044;-61
2022/11/23 06:58:35;;;;;;;16.98;9.43;;;8.30;99.90;;;;;;5035172;28;20041;-61
2022/11/23 07:01:03;;;;;;;13.48;9.27;;;8.10;99.90;;;;;;5017341;28;20061;-61
2022/11/23 07:03:28;;;;;;;20.70;9.82;;;8.20;99.90;;;;;;5035122;28;20040;-60
2022/11/23 07:05:54;;;;;;;18.60;8.95;;;8.00;99.90;;;;;;5017279;28;20041;-60
2022/11/23 07:08:20;;;;;;;17.42;6.85;;;8.10;99.90;;;;;;5033834;28;20527;-59
2022/11/23 07:10:45;;;;;;;20.48;8.07;;;8.20;99.90;;;;;;5034763;28;20045;-60
2022/11/23 07:13:11;;;;;;;15.98;8.98;;;8.40;99.90;;;;;;5017156;28;20044;-58
2022/11/23 07:15:37;;;;;;;18.38;9.43;;;8.20;99.90;;;;;;5034395;28;20117;-60
2022/11/23 07:18:04;;;;;;;14.23;7.68;;;8.20;99.90;;;;;;5016458;28;20045;-62
2022/11/23 07:20:29;;;;;;;21.33;7.93;;;8.20;99.90;;;;;;5005929;28;20046;-61
2022/11/23 07:23:06;;;;;;;13.65;8.70;;;8.10;99.90;;;;;;5002735;28;20050;-61
2022/11/23 07:25:33;;;;;;;15.27;8.70;;;8.20;99.90;;;;;;5015334;28;20100;-61
2022/11/23 07:28:00;;;;;;;17.20;7.65;;;8.20;99.90;;;;;;5015876;28;20034;-61
2022/11/23 07:30:28;;;;;;;15.65;7.85;;;8.20;99.90;;;;;;5014381;28;20037;-61
2022/11/23 07:32:57;;;;;;;16.45;7.82;;;8.20;99.90;;;;;;5016103;28;20073;-59
2022/11/23 07:35:23;;;;;;;17.50;8.48;;;8.20;99.90;;;;;;5001057;28;20045;-61
2022/11/23 07:37:48;;;;;;;15.40;7.78;;;8.30;99.90;;;;;;5013891;28;20034;-61
2022/11/23 07:40:14;;;;;;;11.93;6.90;;;;;;;;;;4999924;28;20509;-61
2022/11/23 07:42:40;;;;;;;20.35;8.15;;;8.20;99.90;;;;;;4999181;28;20107;-60
2022/11/23 07:45:07;;;;;;;14.02;7.85;;;8.10;99.90;;;;;;5018135;28;20100;-61
2022/11/23 07:47:33;;;;;;;17.35;6.85;;;8.10;99.90;;;;;;5033403;28;20163;-61
2022/11/23 07:49:58;;;;;;;14.32;6.93;;;8.20;99.90;;;;;;5033774;28;20120;-60
2022/11/23 07:52:24;;;;;;;16.73;8.00;;;8.10;99.90;;;;;;5014774;28;20042;-59
2022/11/23 07:54:49;;;;;;;16.23;7.20;;;8.50;99.90;;;;;;5034189;28;20045;-61
2022/11/23 07:57:15;;;;;;;15.20;7.82;;;8.00;99.90;;;;;;5033825;28;20041;-61
2022/11/23 07:59:40;;;;;;;16.27;7.05;;;8.30;99.90;;;;;;5033128;28;20419;-61
2022/11/23 08:02:10;;;;;;;18.40;7.25;;;8.30;99.90;;;;;;5032115;28;20064;-61
2022/11/23 08:04:36;;;;;;;14.10;6.85;;;8.10;99.90;;;;;;5024913;28;20029;-61
2022/11/23 08:07:02;;;;;;;16.95;7.22;;;8.30;99.90;;;;;;5023513;28;20100;-61
2022/11/23 08:09:28;;;;;;;15.50;6.80;;;8.40;99.90;;;;;;5019788;28;20045;-61
2022/11/23 08:11:53;;;;;;;14.40;7.32;;;8.40;99.90;;;;;;5016054;28;20511;-61
2022/11/23 08:14:19;;;;;;;17.80;6.32;;;8.50;99.90;;;;;;5033588;28;20037;-61
2022/11/23 08:16:48;;;;;;;14.32;6.80;;;8.50;99.90;;;;;;5033428;28;20107;-61
2022/11/23 08:19:14;;;;;;;13.43;6.88;;;8.30;99.90;;;;;;5015838;28;20053;-61
2022/11/23 08:21:39;;;;;;;13.05;6.78;;;8.50;99.90;;;;;;5033315;28;20045;-61
2022/11/23 08:24:05;;;;;;;13.48;6.72;;;8.40;99.90;;;;;;5033575;28;20120;-61
2022/11/23 08:26:30;;;;;;;17.02;6.03;;;8.40;99.90;;;;;;5015734;28;20052;-61
2022/11/23 08:28:56;;;;;;;12.15;6.13;;;8.40;99.90;;;;;;5033643;28;20617;-61
2022/11/23 08:31:21;;;;;;;13.80;6.18;;;8.50;99.90;;;;;;5033422;28;20042;-62
2022/11/23 08:33:47;;;;;;;16.33;6.32;;;8.70;99.90;;;;;;5015954;28;20488;-61
2022/11/23 08:36:13;;;;;;;17.70;8.10;;;9.10;99.90;;;;;;5012051;28;20045;-63
2022/11/23 08:38:38;;;;;;;14.80;6.50;;;8.90;99.90;;;;;;5029197;28;20041;-63
2022/11/23 08:41:04;;;;;;;17.33;6.05;;;8.90;99.90;;;;;;5019835;28;20050;-62
2022/11/23 08:43:30;;;;;;;18.48;6.47;;;8.90;99.90;;;;;;5012669;28;20038;-63
2022/11/23 08:45:56;;;;;;;13.18;6.13;;;8.90;99.90;;;;;;4997068;28;20056;-63
2022/11/23 08:48:22;;;;;;;15.50;5.32;;;8.80;99.90;;;;;;4998035;28;20092;-63
2022/11/23 08:50:47;;;;;;;15.38;5.50;;;8.90;99.90;;;;;;5014994;28;20046;-63
2022/11/23 08:53:13;;;;;;;11.02;5.90;;;8.90;99.90;;;;;;5015004;28;20038;-63
2022/11/23 08:55:38;;;;;;;14.57;5.88;;;8.90;99.90;;;;;;5013531;28;20052;-62
2022/11/23 08:58:06;;;;;;;14.90;5.43;;;8.80;99.90;;;;;;5006277;28;20053;-62
2022/11/23 09:00:31;;;;;;;16.30;5.40;;;8.80;99.90;;;;;;5032768;28;20042;-62
2022/11/23 09:02:57;;;;;;;15.25;8.70;;;8.80;99.90;;;;;;5032852;28;20095;-61
2022/11/23 09:05:23;;;;;;;14.25;6.15;;;8.70;99.90;;;;;;5014987;28;20069;-62
2022/11/23 09:07:49;;;;;;;16.58;5.88;;;8.90;99.90;;;;;;5032636;28;20037;-62
2022/11/23 09:10:16;;;;;;;16.00;5.22;;;8.90;99.90;;;;;;5015199;28;20052;-61
2022/11/23 09:12:41;;;;;;;13.55;5.07;;;8.90;99.90;;;;;;5032736;28;20081;-62
2022/11/23 09:15:07;;;;;;;17.73;5.10;;;8.90;99.90;;;;;;5032593;28;20097;-62
2022/11/23 09:17:33;;;;;;;17.48;5.47;;;8.90;99.90;;;;;;5032782;28;20045;-62
2022/11/23 09:19:59;;;;;;;17.02;4.68;;;;;;;;;;5032590;28;20037;-62
2022/11/23 09:22:25;;;;;;;12.35;4.65;;;8.90;99.90;;;;;;5014988;28;20041;-62
2022/11/23 09:24:51;;;;;;;16.73;4.20;;;8.80;99.90;;;;;;5032831;28;20029;-62
2022/11/23 09:27:17;;;;;;;15.27;5.10;;;8.90;99.90;;;;;;5014969;28;20044;-62
2022/11/23 09:29:43;;;;;;;14.70;4.85;;;8.90;99.90;;;;;;5032789;28;20034;-62
2022/11/23 09:32:08;;;;;;;11.48;4.30;;;8.90;99.90;;;;;;5015475;28;20491;-63
2022/11/23 09:34:34;;;;;;;15.85;4.85;;;8.90;99.90;;;;;;5032616;28;20042;-61
2022/11/23 09:36:59;;;;;;;19.73;5.50;;;9.00;99.90;;;;;;5032664;28;20091;-61
2022/11/23 09:39:25;;;;;;;18.25;5.13;;;9.10;99.90;;;;;;5032929;28;20045;-61
2022/11/23 09:42:24;;;;;;;14.68;4.97;;;8.90;99.90;;;;;;5017427;28;20052;-61
2022/11/23 09:45:02;;;;;;;15.52;4.85;;;9.00;99.90;;;;;;5027392;28;20051;-61
2022/11/23 09:47:55;;;;;;;12.48;5.05;;;9.00;99.90;;;;;;5031820;28;20040;-60
2022/11/23 09:50:32;;;;;;;14.68;4.60;;;9.10;99.90;;;;;;5014692;28;20083;-61
2022/11/23 09:53:04;;;;;;;15.98;4.78;;;9.00;99.90;;;;;;5014579;28;20049;-61
2022/11/23 09:55:45;;;;;;;15.07;5.32;;;9.20;99.90;;;;;;5032411;28;20037;-62
2022/11/23 09:58:17;;;;;;;20.10;4.53;;;9.10;99.90;;;;;;5018581;28;20125;-61
2022/11/23 10:01:05;;;;;;;15.02;4.78;;;9.10;99.90;;;;;;5036164;28;20053;-61
2022/11/23 10:03:36;;;;;;;15.90;4.80;;;9.20;99.90;;;;;;5036236;28;20400;-61
2022/11/23 10:06:30;;;;;;;19.48;4.68;;;9.20;99.90;;;;;;5016925;28;20045;-61
2022/11/23 10:09:14;;;;;;;19.20;4.75;;;;;;;;;;5035887;28;20112;-61
2022/11/23 10:11:59;;;;;;;12.77;4.32;;;9.20;99.90;;;;;;5036188;28;20033;-61
2022/11/23 10:14:49;;;;;;;18.35;4.20;;;9.10;99.90;;;;;;5017974;28;20037;-61
2022/11/23 10:17:47;;;;;;;10.80;3.72;;;9.20;99.90;;;;;;5030648;28;20486;-61
2022/11/23 10:20:37;;;;;;;8.52;3.45;;;9.20;99.90;;;;;;5026864;28;20156;-61
2022/11/23 10:23:23;;;;;;;11.85;5.47;;;9.30;99.90;;;;;;5035976;28;20045;-62
2022/11/23 10:25:51;;;;;;;18.38;4.82;;;9.20;99.90;;;;;;5035764;28;20544;-62
2022/11/23 10:28:19;;;;;;;17.50;5.38;;;9.20;99.90;;;;;;5017952;28;20044;-62
2022/11/23 10:31:18;;;;;;;23.77;4.95;;;9.10;99.90;;;;;;5018272;28;20116;-62
2022/11/23 10:33:50;;;;;;;19.92;4.65;;;9.10;99.90;;;;;;5014588;28;20126;-62
2022/11/23 10:36:16;;;;;;;10.02;4.07;;;9.20;99.90;;;;;;5018266;28;20084;-62
2022/11/23 10:38:42;;;;;;;15.85;4.13;;;9.20;99.90;;;;;;5035721;28;20508;-63
2022/11/23 10:41:12;;;;;;;14.18;4.20;;;9.30;99.90;;;;;;5035548;28;20442;-62
2022/11/23 10:44:08;;;;;;;14.93;4.45;;;9.30;99.90;;;;;;5035230;28;20033;-63
2022/11/23 10:46:35;;;;;;;17.70;4.60;;;9.40;99.90;;;;;;5035342;28;20514;-62
2022/11/23 10:49:18;;;;;;;16.13;4.25;;;9.40;99.90;;;;;;5021674;28;20451;-62
2022/11/23 10:52:24;;;;;;;18.00;3.88;;;9.60;99.90;;;;;;5017877;28;20041;-62
2022/11/23 10:54:53;;;;;;;12.75;3.80;;;9.50;99.90;;;;;;5017389;28;20072;-62
2022/11/23 10:57:33;;;;;;;10.90;3.72;;;9.60;99.90;;;;;;5035098;28;20479;-61
2022/11/23 11:00:08;;;;;;;13.32;3.95;;;9.50;99.90;;;;;;5035177;28;20083;-61
2022/11/23 11:02:44;;;;;;;10.60;3.22;;;9.80;99.90;;;;;;5016989;28;20037;-61
2022/11/23 11:05:27;;;;;;;15.65;3.20;;;9.80;99.90;;;;;;5017275;28;20041;-61
2022/11/23 11:07:55;;;;;;;20.27;4.05;;;10.10;99.90;;;;;;5004500;28;20124;-63
2022/11/23 11:10:40;;;;;;;15.50;3.17;;;9.90;99.90;;;;;;5035028;28;20116;-62
2022/11/23 11:13:22;;;;;;;11.17;3.03;;;9.90;99.90;;;;;;5005825;28;20057;-61
2022/11/23 11:16:00;;;;;;;11.43;2.97;;;10.00;99.90;;;;;;5034740;28;20050;-62
2022/11/23 11:18:36;;;;;;;14.65;4.15;;;10.10;99.90;;;;;;5017135;28;20077;-62
2022/11/23 11:21:06;;;;;;;13.88;2.92;;;;;;;;;;5034714;28;20045;-62
2022/11/23 11:23:37;;;;;;;12.98;3.28;;;10.10;99.90;;;;;;5021046;28;20037;-62
2022/11/23 11:26:17;;;;;;;18.15;4.18;;;10.10;99.90;;;;;;5016710;28;20045;-62
2022/11/23 11:28:46;;;;;;;11.43;2.80;;;10.10;99.90;;;;;;5004118;28;20488;-62
2022/11/23 11:31:20;;;;;;;14.13;2.90;;;10.20;99.90;;;;;;5034749;28;20052;-61
2022/11/23 11:34:02;;;;;;;12.07;2.77;;;10.10;99.90;;;;;;5021295;28;20038;-62
2022/11/23 11:36:35;;;;;;;13.90;3.17;;;10.40;99.90;;;;;;5034610;28;20053;-62
2022/11/23 11:39:05;;;;;;;14.85;3.63;;;10.40;99.90;;;;;;5016805;28;20305;-62
2022/11/23 11:41:32;;;;;;;13.25;3.33;;;10.30;99.90;;;;;;5034397;28;20392;-63
2022/11/23 11:44:08;;;;;;;7.05;2.47;;;10.30;99.90;;;;;;5034296;28;20037;-62
2022/11/23 11:46:39;;;;;;;19.95;3.17;;;10.70;99.90;;;;;;5016533;28;20164;-61
2022/11/23 11:49:11;;;;;;;11.10;2.80;;;10.90;99.90;;;;;;5020939;28;20123;-61
2022/11/23 11:51:51;;;;;;;14.25;2.90;;;10.80;99.90;;;;;;5034279;28;20045;-62
2022/11/23 11:54:20;;;;;;;11.80;3.97;;;10.90;99.90;;;;;;5004184;28;20029;-62
2022/11/23 11:56:50;;;;;;;11.85;2.83;;;10.80;99.90;;;;;;5034232;28;20050;-61
2022/11/23 11:59:25;;;;;;;14.60;2.95;;;11.00;99.90;;;;;;5003205;28;20068;-62
2022/11/23 12:01:57;;;;;;;9.73;2.53;;;;;;;;;;5016275;28;20476;-61
2022/11/23 12:04:33;;;;;;;7.90;2.63;;;11.30;99.90;;;;;;5002973;28;20037;-62
2022/11/23 12:07:26;;;;;;;15.48;3.17;;;11.40;99.90;;;;;;5033917;28;20044;-62
2022/11/23 12:09:59;;;;;;;14.13;3.00;;;11.20;99.90;;;;;;5012701;28;20515;-62
2022/11/23 12:12:25;;;;;;;11.27;3.20;;;;;;;;;;5016018;28;20037;-62
2022/11/23 12:14:51;;;;;;;9.05;2.22;;;11.10;99.90;;;;;;5033438;28;20033;-62
2022/11/23 12:17:25;;;;;;;13.07;3.10;;;11.00;99.90;;;;;;5033715;28;20045;-62
2022/11/23 12:19:59;;;;;;;10.38;2.13;;;11.00;99.90;;;;;;5032594;28;20476;-62
2022/11/23 12:22:51;;;;;;;16.77;2.97;;;11.10;99.90;;;;;;5016026;28;20037;-62
2022/11/23 12:25:33;;;;;;;10.05;2.38;;;11.50;99.90;;;;;;5020539;28;20052;-62
2022/11/23 12:28:26;;;;;;;10.57;2.53;;;11.20;99.90;;;;;;5033467;28;20048;-62
2022/11/23 12:31:03;;;;;;;13.98;2.65;;;11.60;99.90;;;;;;5033654;28;20447;-62
2022/11/23 12:33:44;;;;;;;10.98;2.00;;;11.90;99.90;;;;;;5015947;28;20080;-62
2022/11/23 12:36:28;;;;;;;12.15;2.38;;;12.70;99.90;;;;;;5033373;28;20041;-62
2022/11/23 12:39:21;;;;;;;8.43;2.63;;;13.10;99.90;;;;;;5020152;28;20041;-62
2022/11/23 12:41:57;;;;;;;9.02;2.50;;;12.90;99.90;;;;;;5015641;28;20049;-62
2022/11/23 12:45:07;;;;;;;6.82;2.60;;;12.60;99.90;;;;;;5033367;28;20041;-62
2022/11/23 12:47:46;;;;;;;5.85;1.90;;;12.20;99.90;;;;;;5021414;28;20455;-62
2022/11/23 12:50:40;;;;;;;10.25;2.45;;;12.20;99.90;;;;;;5033302;28;20041;-62
2022/11/23 12:53:44;;;;;;;13.60;2.20;;;11.80;99.90;;;;;;5022396;28;20056;-62
2022/11/23 12:56:14;;;;;;;13.68;2.55;;;11.90;99.90;;;;;;4979113;28;20097;-62
2022/11/23 12:58:43;;;;;;;14.85;2.20;;;12.10;99.90;;;;;;5011103;28;20068;-62